CheckWX is a tool to help pilots better visualize weather data.  It is not intended as a substitute for an official pre-flight weather briefing.

14:55:20 UTC

KMPZ METAR
Mount Pleasant Municipal Airport
Mount Pleasant, Iowa, USA
Current

20 mins ago

KMPZ 261435Z AUTO 28003KT 3/4SM BR OVC002 M07/M07 A3000 RMK AO2
Observed
Jan-26 @ 14:35 UTC
Wind
  • 280° at 3 KTS
Visibility
3/4 SM
Flight Rules
LIFR
Conditions
Mist
Cloud Levels
  • Overcast at 200' AGL
Temperature
-7°C / 19°F
Dewpoint
-7°C / 19°F
Humidity
100%
Altimeter
30" Hg
Pressure
1015.92 hPa
Previous

40 mins ago

KMPZ 261415Z AUTO 26004KT 1/2SM FZFG OVC002 M07/M08 A3000 RMK AO2
Observed
Jan-26 @ 14:15 UTC
Wind
  • 260° at 4 KTS
Visibility
1/2 SM
Flight Rules
LIFR
Conditions
Freezing Fog
Cloud Levels
  • Overcast at 200' AGL
Temperature
-7°C / 19°F
Dewpoint
-8°C / 18°F
Humidity
93%
Altimeter
30" Hg
Pressure
1015.92 hPa
Previous

1 hour ago

KMPZ 261335Z AUTO 00000KT 1/2SM FZFG OVC002 M08/M09 A2999 RMK AO2
Observed
Jan-26 @ 13:35 UTC
Visibility
1/2 SM
Flight Rules
LIFR
Conditions
Freezing Fog
Cloud Levels
  • Overcast at 200' AGL
Temperature
-8°C / 18°F
Dewpoint
-9°C / 16°F
Humidity
93%
Altimeter
29.99" Hg
Pressure
1015.62 hPa